createdAt,value
2024-02-21T00:01:56.181Z,96508.81
2024-02-21T00:04:24.010Z,96495.38
2024-02-21T00:06:51.913Z,96503.09
2024-02-21T00:09:20.660Z,96500.47
2024-02-21T00:11:48.798Z,96503.47
2024-02-21T00:14:18.076Z,96497.59
2024-02-21T00:16:45.871Z,96501.03
2024-02-21T00:19:13.726Z,96498.25
2024-02-21T00:21:41.504Z,96490.38
2024-02-21T00:24:09.217Z,96495.00
2024-02-21T00:26:36.900Z,96483.03
2024-02-21T00:29:06.543Z,96482.50
2024-02-21T00:31:37.731Z,96475.16
2024-02-21T00:34:05.672Z,96476.16
2024-02-21T00:36:33.402Z,96465.94
2024-02-21T00:39:01.159Z,96466.78
2024-02-21T00:41:28.828Z,96469.75
2024-02-21T00:43:56.423Z,96455.09
2024-02-21T00:46:24.471Z,96456.72
2024-02-21T00:48:53.761Z,96457.47
2024-02-21T00:51:21.489Z,96453.34
2024-02-21T00:53:48.981Z,96457.63
2024-02-21T00:56:16.664Z,96451.19
2024-02-21T00:58:44.212Z,96456.13
2024-02-21T01:01:12.062Z,96458.09
2024-02-21T01:07:47.422Z,96461.97
2024-02-21T01:10:15.131Z,96463.31
2024-02-21T01:12:42.766Z,96461.50
2024-02-21T01:15:11.215Z,96455.06
2024-02-21T01:17:39.151Z,96454.75
2024-02-21T01:20:08.220Z,96437.09
2024-02-21T01:22:35.979Z,96447.97
2024-02-21T01:25:04.976Z,96449.97
2024-02-21T01:27:32.738Z,96445.72
2024-02-21T01:30:00.254Z,96443.25
2024-02-21T01:32:27.994Z,96443.56
2024-02-21T01:34:55.579Z,96435.31
2024-02-21T01:37:23.388Z,96425.47
2024-02-21T01:39:51.633Z,96428.91
2024-02-21T01:42:20.659Z,96423.34
2024-02-21T01:44:48.381Z,96425.31
2024-02-21T01:47:15.970Z,96416.91
2024-02-21T01:49:43.786Z,96415.94
2024-02-21T01:52:13.875Z,96417.22
2024-02-21T01:54:41.935Z,96415.56
2024-02-21T01:57:09.707Z,96407.00
2024-02-21T01:59:38.582Z,96403.88
2024-02-21T02:02:06.374Z,96397.13
2024-02-21T02:04:35.123Z,96395.50
2024-02-21T02:07:06.345Z,96393.34
2024-02-21T02:09:34.477Z,96397.50
2024-02-21T02:12:02.574Z,96394.50
2024-02-21T02:14:30.362Z,96387.94
2024-02-21T02:16:59.205Z,96389.91
2024-02-21T02:19:26.985Z,96388.47
2024-02-21T02:22:01.662Z,96384.53
2024-02-21T02:24:30.798Z,96376.78
2024-02-21T02:26:58.506Z,96375.13
2024-02-21T02:29:26.456Z,96374.47
2024-02-21T02:31:54.208Z,96370.06
2024-02-21T02:34:22.036Z,96357.38
2024-02-21T02:36:50.545Z,96356.56
2024-02-21T02:39:18.315Z,96350.78
2024-02-21T02:41:47.162Z,96357.22
2024-02-21T02:44:16.147Z,96351.78
2024-02-21T02:46:44.082Z,96342.72
2024-02-21T02:49:12.204Z,96339.13
2024-02-21T02:51:43.593Z,96315.72
2024-02-21T02:54:11.372Z,96333.88
2024-02-21T02:56:38.891Z,96325.97
2024-02-21T02:59:07.945Z,96324.66
2024-02-21T03:01:36.843Z,96322.19
2024-02-21T03:04:04.768Z,96324.00
2024-02-21T03:06:32.688Z,96323.81
2024-02-21T03:09:01.170Z,96320.06
2024-02-21T03:11:31.423Z,96316.56
2024-02-21T03:13:59.495Z,96313.47
2024-02-21T03:16:28.974Z,96317.91
2024-02-21T03:18:56.833Z,96315.78
2024-02-21T03:21:24.938Z,96309.03
2024-02-21T03:23:52.694Z,96311.31
2024-02-21T03:26:20.208Z,96315.25
2024-02-21T03:28:48.025Z,96311.66
2024-02-21T03:31:15.905Z,96312.16
2024-02-21T03:33:45.425Z,96312.97
2024-02-21T03:36:16.411Z,96312.16
2024-02-21T03:38:44.295Z,96305.41
2024-02-21T03:41:11.992Z,96307.56
2024-02-21T03:43:39.856Z,96310.19
2024-02-21T03:46:08.759Z,96308.03
2024-02-21T03:48:36.492Z,96303.28
2024-02-21T03:51:05.738Z,96309.56
2024-02-21T03:53:33.426Z,96309.84
2024-02-21T03:56:04.890Z,96306.56
2024-02-21T03:58:32.826Z,96300.47
2024-02-21T04:01:02.428Z,96299.47
2024-02-21T04:03:30.511Z,96297.69
2024-02-21T04:05:58.754Z,96301.63
2024-02-21T04:08:27.995Z,96304.94
2024-02-21T04:10:55.738Z,96300.63
2024-02-21T04:13:23.922Z,96305.09
2024-02-21T04:15:51.694Z,96300.31
2024-02-21T04:18:19.247Z,96298.66
2024-02-21T04:20:47.129Z,96293.88
2024-02-21T04:23:15.336Z,96295.03
2024-02-21T04:25:44.515Z,96293.88
2024-02-21T04:28:12.200Z,96286.16
2024-02-21T04:30:39.715Z,96282.34
2024-02-21T04:33:07.556Z,96283.66
2024-02-21T04:35:35.443Z,96278.59
2024-02-21T04:38:03.271Z,96273.13
2024-02-21T04:40:31.932Z,96273.13
2024-02-21T04:43:00.994Z,96271.16
2024-02-21T04:45:28.683Z,96272.78
2024-02-21T04:47:56.455Z,96262.56
2024-02-21T04:50:24.248Z,96265.88
2024-02-21T04:52:52.103Z,96260.75
2024-02-21T04:55:19.854Z,96256.66
2024-02-21T04:57:47.353Z,96250.88
2024-02-21T05:00:17.519Z,96252.50
2024-02-21T05:02:45.223Z,96247.22
2024-02-21T05:05:12.932Z,96245.75
2024-02-21T05:07:41.413Z,96243.25
2024-02-21T05:10:10.702Z,96238.16
2024-02-21T05:12:38.444Z,96225.16
2024-02-21T05:15:06.491Z,96225.66
2024-02-21T05:17:35.709Z,96218.41
2024-02-21T05:20:04.211Z,96219.88
2024-02-21T05:22:32.093Z,96211.00
2024-02-21T05:24:59.650Z,96211.28
2024-02-21T05:27:27.536Z,96202.75
2024-02-21T05:29:55.760Z,96200.78
2024-02-21T05:32:23.480Z,96195.66
2024-02-21T05:34:52.468Z,96190.72
2024-02-21T05:37:20.258Z,96193.53
2024-02-21T05:39:47.900Z,96189.91
2024-02-21T05:42:15.704Z,96183.97
2024-02-21T05:44:43.220Z,96184.94
2024-02-21T05:47:11.688Z,96184.59
2024-02-21T05:49:39.457Z,96177.53
2024-02-21T05:52:08.650Z,96177.34
2024-02-21T05:54:36.374Z,96169.13
2024-02-21T05:57:04.030Z,96169.78
2024-02-21T05:59:31.890Z,96167.47
2024-02-21T06:01:59.959Z,96169.09
2024-02-21T06:04:27.831Z,96161.72
2024-02-21T06:06:55.642Z,96156.16
2024-02-21T06:09:24.584Z,96154.84
2024-02-21T06:11:52.413Z,96148.59
2024-02-21T06:14:20.147Z,96151.56
2024-02-21T06:16:48.148Z,96152.38
2024-02-21T06:19:16.167Z,96156.47
2024-02-21T06:21:43.944Z,96156.44
2024-02-21T06:24:11.408Z,96162.38
2024-02-21T06:26:41.325Z,96167.44
2024-02-21T06:29:09.155Z,96159.72
2024-02-21T06:31:37.697Z,96152.97
2024-02-21T06:34:06.175Z,96153.50
2024-02-21T06:36:34.124Z,96152.22
2024-02-21T06:39:01.876Z,96151.38
2024-02-21T06:41:31.548Z,96149.41
2024-02-21T06:44:00.813Z,96146.31
2024-02-21T06:46:29.950Z,96146.69
2024-02-21T06:48:58.947Z,96153.59
2024-02-21T06:51:26.925Z,96154.75
2024-02-21T06:53:54.948Z,96159.38
2024-02-21T06:56:22.974Z,96155.59
2024-02-21T06:58:50.734Z,96156.94
2024-02-21T07:01:19.752Z,96155.31
2024-02-21T07:03:47.571Z,96155.97
2024-02-21T07:06:15.656Z,96158.25
2024-02-21T07:08:43.468Z,96148.75
2024-02-21T07:11:11.252Z,96147.59
2024-02-21T07:13:39.072Z,96134.88
2024-02-21T07:16:07.162Z,96140.00
2024-02-21T07:18:36.350Z,96136.03
2024-02-21T07:21:04.307Z,96140.00
2024-02-21T07:23:32.089Z,96145.59
2024-02-21T07:26:01.048Z,96142.47
2024-02-21T07:28:29.014Z,96143.28
2024-02-21T07:30:56.737Z,96146.69
2024-02-21T07:33:24.247Z,96153.44
2024-02-21T07:35:53.549Z,96150.63
2024-02-21T07:38:24.267Z,96147.69
2024-02-21T07:40:52.217Z,96139.94
2024-02-21T07:43:20.139Z,96140.06
2024-02-21T07:45:47.920Z,96139.69
2024-02-21T07:48:15.457Z,96122.41
2024-02-21T07:50:43.214Z,96118.16
2024-02-21T07:53:12.383Z,96112.03
2024-02-21T07:55:40.128Z,96111.88
2024-02-21T07:58:08.743Z,96104.09
2024-02-21T08:00:36.465Z,96098.81
2024-02-21T08:03:04.785Z,96097.59
2024-02-21T08:05:32.640Z,96091.13
2024-02-21T08:08:00.675Z,96078.59
2024-02-21T08:10:29.938Z,96066.56
2024-02-21T08:12:57.692Z,96070.50
2024-02-21T08:15:29.567Z,96058.97
2024-02-21T08:18:00.963Z,96049.19
2024-02-21T08:20:29.192Z,96042.03
2024-02-21T08:22:56.892Z,96034.06
2024-02-21T08:25:24.821Z,96034.75
2024-02-21T08:27:54.031Z,96030.84
2024-02-21T08:30:22.231Z,96037.41
2024-02-21T08:32:49.979Z,96042.47
2024-02-21T08:35:19.810Z,96038.22
2024-02-21T08:37:49.215Z,96014.44
2024-02-21T08:40:18.922Z,96034.63
2024-02-21T08:42:46.788Z,96022.69
2024-02-21T08:45:15.848Z,96027.66
2024-02-21T08:47:44.031Z,96025.84
2024-02-21T08:50:22.727Z,96030.38
2024-02-21T08:52:55.658Z,96035.19
2024-02-21T08:55:26.140Z,96035.03
2024-02-21T08:57:55.842Z,96035.03
2024-02-21T09:00:28.769Z,96039.59
2024-02-21T09:02:57.948Z,96037.91
2024-02-21T09:05:26.240Z,96033.88
2024-02-21T09:07:54.736Z,96027.72
2024-02-21T09:10:22.789Z,96035.56
2024-02-21T09:12:50.658Z,96038.75
2024-02-21T09:15:18.402Z,96044.19
2024-02-21T09:17:47.614Z,96037.75
2024-02-21T09:20:17.719Z,96041.13
2024-02-21T09:22:45.771Z,96040.00
2024-02-21T09:25:13.682Z,96030.47
2024-02-21T09:27:41.688Z,96038.09
2024-02-21T09:30:10.204Z,96034.75
2024-02-21T09:32:38.642Z,96037.06
2024-02-21T09:35:08.767Z,96028.25
2024-02-21T09:37:37.204Z,96028.50
2024-02-21T09:40:05.545Z,96026.31
2024-02-21T09:42:40.279Z,96031.28
2024-02-21T09:45:10.936Z,96028.47
2024-02-21T09:47:52.903Z,96031.91
2024-02-21T09:50:23.786Z,96030.53
2024-02-21T09:52:53.598Z,96020.75
2024-02-21T09:55:21.617Z,96028.34
2024-02-21T09:57:52.051Z,96018.97
2024-02-21T10:00:22.749Z,96004.28
2024-02-21T10:02:51.688Z,96014.53
2024-02-21T10:05:19.742Z,96011.69
2024-02-21T10:07:52.134Z,96010.66
2024-02-21T10:10:22.781Z,96013.72
2024-02-21T10:12:51.676Z,96007.41
2024-02-21T10:15:23.577Z,95997.16
2024-02-21T10:17:51.977Z,95996.44
2024-02-21T10:20:20.172Z,95992.34
2024-02-21T10:22:47.950Z,95987.25
2024-02-21T10:25:17.627Z,95988.03
2024-02-21T10:27:45.392Z,95970.94
2024-02-21T10:30:16.958Z,95973.25
2024-02-21T10:32:52.600Z,95978.88
2024-02-21T10:35:29.206Z,95983.00
2024-02-21T10:37:59.521Z,95977.16
2024-02-21T10:40:30.828Z,95976.91
2024-02-21T10:43:01.235Z,95970.59
2024-02-21T10:45:32.887Z,95964.06
2024-02-21T10:48:10.470Z,95954.47
2024-02-21T10:50:49.655Z,95954.84
2024-02-21T10:53:26.899Z,95936.25
2024-02-21T10:56:05.148Z,95931.34
2024-02-21T10:58:34.582Z,95923.41
2024-02-21T11:01:04.359Z,95904.44
2024-02-21T11:03:33.143Z,95903.66
2024-02-21T11:06:02.208Z,95902.16
2024-02-21T11:08:30.159Z,95904.94
2024-02-21T11:11:01.537Z,95895.06
2024-02-21T11:13:33.665Z,95881.88
2024-02-21T11:16:12.117Z,95889.00
2024-02-21T11:18:40.389Z,95879.31
2024-02-21T11:21:08.934Z,95878.03
2024-02-21T11:23:36.724Z,95866.78
2024-02-21T11:26:11.097Z,95852.38
2024-02-21T11:28:39.323Z,95844.06
2024-02-21T11:31:10.378Z,95842.97
2024-02-21T11:33:41.252Z,95833.81
2024-02-21T11:36:09.763Z,95827.97
2024-02-21T11:38:38.041Z,95828.00
2024-02-21T11:41:14.241Z,95820.56
2024-02-21T11:43:42.977Z,95820.44
2024-02-21T11:46:10.872Z,95811.47
2024-02-21T11:48:39.789Z,95820.66
2024-02-21T11:51:07.573Z,95804.53
2024-02-21T11:53:38.479Z,95801.41
2024-02-21T11:56:12.966Z,95791.75
2024-02-21T11:58:40.748Z,95793.25
2024-02-21T12:01:08.604Z,95794.19
2024-02-21T12:03:37.833Z,95784.41
2024-02-21T12:06:08.825Z,95779.75
2024-02-21T12:08:44.612Z,95772.22
2024-02-21T12:11:21.926Z,95759.31
2024-02-21T12:13:49.904Z,95764.69
2024-02-21T12:16:19.453Z,95759.91
2024-02-21T12:18:47.655Z,95750.72
2024-02-21T12:21:15.636Z,95750.00
2024-02-21T12:23:43.476Z,95750.59
2024-02-21T12:26:11.665Z,95749.22
2024-02-21T12:28:40.918Z,95740.75
2024-02-21T12:31:08.845Z,95744.34
2024-02-21T12:33:36.781Z,95736.22
2024-02-21T12:36:05.864Z,95736.47
2024-02-21T12:38:33.756Z,95724.81
2024-02-21T12:41:01.718Z,95714.13
2024-02-21T12:43:29.988Z,95711.44
2024-02-21T12:45:59.153Z,95698.31
2024-02-21T12:48:26.910Z,95697.66
2024-02-21T12:50:54.661Z,95690.28
2024-02-21T12:53:28.894Z,95682.94
2024-02-21T12:56:01.023Z,95679.94
2024-02-21T12:58:30.058Z,95669.53
2024-02-21T13:00:59.192Z,95662.47
2024-02-21T13:03:28.162Z,95664.22
2024-02-21T13:05:57.764Z,95637.69
2024-02-21T13:08:25.936Z,95654.41
2024-02-21T13:10:55.710Z,95644.63
2024-02-21T13:13:23.724Z,95642.31
2024-02-21T13:15:51.461Z,95639.63
2024-02-21T13:18:20.741Z,95631.41
2024-02-21T13:20:49.549Z,95628.94
2024-02-21T13:23:17.486Z,95617.44
2024-02-21T13:25:46.646Z,95618.41
2024-02-21T13:28:15.827Z,95615.00
2024-02-21T13:30:43.606Z,95610.91
2024-02-21T13:33:11.970Z,95609.69
2024-02-21T13:35:41.348Z,95606.16
2024-02-21T13:38:11.261Z,95601.31
2024-02-21T13:40:39.191Z,95595.66
2024-02-21T13:43:09.391Z,95595.09
2024-02-21T13:45:38.614Z,95597.91
2024-02-21T13:48:08.970Z,95589.25
2024-02-21T13:50:43.731Z,95583.72
2024-02-21T13:53:12.830Z,95575.13
2024-02-21T13:55:41.933Z,95579.28
2024-02-21T13:58:09.969Z,95568.41
2024-02-21T14:00:37.733Z,95563.88
2024-02-21T14:03:06.096Z,95552.88
2024-02-21T14:05:34.005Z,95557.25
2024-02-21T14:08:01.924Z,95556.91
2024-02-21T14:10:31.013Z,95546.31
2024-02-21T14:12:59.069Z,95544.47
2024-02-21T14:15:27.174Z,95541.13
2024-02-21T14:17:56.456Z,95534.16
2024-02-21T14:20:24.462Z,95532.78
2024-02-21T14:22:52.305Z,95531.16
2024-02-21T14:25:20.280Z,95526.97
2024-02-21T14:27:49.402Z,95514.47
2024-02-21T14:30:17.724Z,95504.47
2024-02-21T14:32:46.550Z,95508.41
2024-02-21T14:35:14.800Z,95512.88
2024-02-21T14:37:42.651Z,95502.72
2024-02-21T14:40:11.140Z,95499.59
2024-02-21T14:42:38.926Z,95500.34
2024-02-21T14:45:09.394Z,95488.81
2024-02-21T14:47:37.177Z,95475.41
2024-02-21T14:50:06.342Z,95487.66
2024-02-21T14:52:35.822Z,95478.06
2024-02-21T14:55:04.396Z,95476.13
2024-02-21T14:57:32.177Z,95475.91
2024-02-21T15:00:00.796Z,95473.38
2024-02-21T15:02:30.603Z,95468.81
2024-02-21T15:04:58.436Z,95475.47
2024-02-21T15:07:27.519Z,95468.97
2024-02-21T15:09:55.298Z,95464.31
2024-02-21T15:12:24.226Z,95468.50
2024-02-21T15:14:52.602Z,95468.03
2024-02-21T15:17:20.488Z,95466.41
2024-02-21T15:19:50.801Z,95472.09
2024-02-21T15:22:20.627Z,95486.50
2024-02-21T15:24:49.778Z,95486.97
2024-02-21T15:27:17.754Z,95484.66
2024-02-21T15:29:45.877Z,95475.59
2024-02-21T15:32:13.671Z,95471.09
2024-02-21T15:34:41.684Z,95473.50
2024-02-21T15:37:11.850Z,95470.72
2024-02-21T15:39:39.588Z,95477.41
2024-02-21T15:42:08.002Z,95465.25
2024-02-21T15:44:35.715Z,95463.59
2024-02-21T15:47:03.435Z,95462.69
2024-02-21T15:49:31.431Z,95463.91
2024-02-21T15:51:59.147Z,95456.47
2024-02-21T15:54:28.927Z,95453.75
2024-02-21T15:56:57.304Z,95463.13
2024-02-21T15:59:25.036Z,95453.00
2024-02-21T16:01:52.785Z,95451.50
2024-02-21T16:04:20.611Z,95454.47
2024-02-21T16:06:52.449Z,95445.25
2024-02-21T16:09:20.426Z,95448.22
2024-02-21T16:11:50.837Z,95454.19
2024-02-21T16:14:18.686Z,95443.88
2024-02-21T16:16:46.410Z,95446.16
2024-02-21T16:19:14.494Z,95441.13
2024-02-21T16:21:42.312Z,95435.88
2024-02-21T16:24:10.197Z,95433.59
2024-02-21T16:26:38.343Z,95433.88
2024-02-21T16:29:08.563Z,95431.88
2024-02-21T16:31:38.229Z,95432.28
2024-02-21T16:34:06.197Z,95428.53
2024-02-21T16:36:34.054Z,95426.75
2024-02-21T16:39:03.864Z,95423.94
2024-02-21T16:41:31.733Z,95415.78
2024-02-21T16:43:59.551Z,95422.28
2024-02-21T16:46:28.699Z,95424.16
2024-02-21T16:48:56.380Z,95417.44
2024-02-21T16:51:24.231Z,95416.47
2024-02-21T16:53:52.124Z,95415.94
2024-02-21T16:56:21.466Z,95419.25
2024-02-21T16:58:49.283Z,95413.53
2024-02-21T17:01:17.507Z,95404.44
2024-02-21T17:03:47.032Z,95417.53
2024-02-21T17:06:17.968Z,95414.53
2024-02-21T17:08:47.764Z,95416.19
2024-02-21T17:11:16.146Z,95411.53
2024-02-21T17:13:44.076Z,95412.59
2024-02-21T17:16:13.042Z,95404.69
2024-02-21T17:18:41.397Z,95402.47
2024-02-21T17:21:10.743Z,95402.50
2024-02-21T17:23:38.528Z,95404.59
2024-02-21T17:26:07.870Z,95394.19
2024-02-21T17:28:35.992Z,95393.44
2024-02-21T17:31:03.793Z,95386.75
2024-02-21T17:33:31.996Z,95383.94
2024-02-21T17:35:59.800Z,95377.63
2024-02-21T17:38:31.033Z,95377.28
2024-02-21T17:40:58.976Z,95373.25
2024-02-21T17:43:27.234Z,95370.25
2024-02-21T17:45:57.252Z,95371.25
2024-02-21T17:48:25.499Z,95372.97
2024-02-21T17:50:53.314Z,95368.09
2024-02-21T17:53:21.190Z,95367.50
2024-02-21T17:55:50.386Z,95365.88
2024-02-21T17:58:18.210Z,95357.34
2024-02-21T18:00:46.220Z,95345.16
2024-02-21T18:03:16.345Z,95345.75
2024-02-21T18:05:45.681Z,95344.97
2024-02-21T18:08:14.145Z,95339.47
2024-02-21T18:10:42.722Z,95335.84
2024-02-21T18:13:11.928Z,95338.28
2024-02-21T18:15:39.731Z,95329.31
2024-02-21T18:18:07.668Z,95330.97
2024-02-21T18:20:35.523Z,95324.25
2024-02-21T18:23:03.673Z,95319.38
2024-02-21T18:25:31.721Z,95320.00
2024-02-21T18:27:59.416Z,95317.34
2024-02-21T18:30:28.540Z,95318.19
2024-02-21T18:32:56.332Z,95310.44
2024-02-21T18:35:24.377Z,95309.84
2024-02-21T18:37:52.132Z,95307.59
2024-02-21T18:40:19.942Z,95303.97
2024-02-21T18:42:48.249Z,95300.69
2024-02-21T18:45:16.718Z,95298.25
2024-02-21T18:47:45.978Z,95288.50
2024-02-21T18:50:14.095Z,95290.72
2024-02-21T18:52:42.009Z,95289.28
2024-02-21T18:55:12.347Z,95290.53
2024-02-21T18:57:40.213Z,95278.72
2024-02-21T19:00:11.306Z,95277.50
2024-02-21T19:02:39.064Z,95271.19
2024-02-21T19:05:09.000Z,95276.91
2024-02-21T19:07:36.856Z,95268.13
2024-02-21T19:10:05.101Z,95270.78
2024-02-21T19:12:32.928Z,95265.09
2024-02-21T19:15:00.718Z,95260.81
2024-02-21T19:17:29.808Z,95266.31
2024-02-21T19:19:57.886Z,95251.03
2024-02-21T19:22:30.590Z,95255.13
2024-02-21T19:25:01.194Z,95258.59
2024-02-21T19:27:28.928Z,95249.22
2024-02-21T19:29:56.662Z,95247.00
2024-02-21T19:32:24.464Z,95245.38
2024-02-21T19:34:53.286Z,95246.19
2024-02-21T19:37:21.058Z,95246.19
2024-02-21T19:39:50.112Z,95237.84
2024-02-21T19:42:17.843Z,95235.22
2024-02-21T19:44:45.710Z,95239.88
2024-02-21T19:47:14.481Z,95234.59
2024-02-21T19:49:42.522Z,95230.34
2024-02-21T19:52:10.300Z,95235.81
2024-02-21T19:54:37.997Z,95235.44
2024-02-21T19:57:07.176Z,95222.41
2024-02-21T19:59:36.477Z,95225.25
2024-02-21T20:02:05.353Z,95224.84
2024-02-21T20:04:33.332Z,95211.66
2024-02-21T20:07:01.137Z,95206.34
2024-02-21T20:09:28.906Z,95199.66
2024-02-21T20:11:57.312Z,95199.84
2024-02-21T20:14:27.338Z,95195.34
2024-02-21T20:16:55.081Z,95202.28
2024-02-21T20:19:22.859Z,95206.16
2024-02-21T20:21:50.752Z,95206.97
2024-02-21T20:24:31.652Z,95198.22
2024-02-21T20:27:03.613Z,95199.66
2024-02-21T20:29:32.937Z,95197.00
2024-02-21T20:32:01.222Z,95192.09
2024-02-21T20:34:31.417Z,95185.81
2024-02-21T20:36:59.483Z,95190.06
2024-02-21T20:39:29.851Z,95178.88
2024-02-21T20:41:58.115Z,95182.75
2024-02-21T20:44:26.720Z,95181.53
2024-02-21T20:46:56.285Z,95172.75
2024-02-21T20:49:25.273Z,95155.31
2024-02-21T20:51:53.455Z,95168.94
2024-02-21T20:54:21.148Z,95163.00
2024-02-21T20:56:48.870Z,95145.94
2024-02-21T20:59:17.791Z,95164.81
2024-02-21T21:01:51.229Z,95159.31
2024-02-21T21:04:27.606Z,95157.47
2024-02-21T21:06:55.649Z,95167.25
2024-02-21T21:09:23.918Z,95167.03
2024-02-21T21:11:51.840Z,95158.88
2024-02-21T21:14:19.838Z,95148.91
2024-02-21T21:16:47.857Z,95145.66
2024-02-21T21:19:15.788Z,95151.75
2024-02-21T21:21:47.312Z,95149.72
2024-02-21T21:24:15.391Z,95141.56
2024-02-21T21:26:43.406Z,95150.91
2024-02-21T21:29:11.172Z,95147.06
2024-02-21T21:31:39.009Z,95150.13
2024-02-21T21:34:07.090Z,95138.31
2024-02-21T21:36:34.942Z,95128.94
2024-02-21T21:39:06.012Z,95126.47
2024-02-21T21:41:33.825Z,95125.47
2024-02-21T21:44:01.613Z,95133.38
2024-02-21T21:46:29.310Z,95118.13
2024-02-21T21:48:57.061Z,95120.75
2024-02-21T21:51:28.447Z,95120.94
2024-02-21T21:53:56.205Z,95120.78
2024-02-21T21:56:25.369Z,95121.59
2024-02-21T21:58:53.113Z,95115.09
2024-02-21T22:01:20.854Z,95114.84
2024-02-21T22:03:48.655Z,95102.84
2024-02-21T22:06:16.655Z,95111.81
2024-02-21T22:08:47.125Z,95119.50
2024-02-21T22:11:17.972Z,95107.28
2024-02-21T22:13:47.988Z,95108.94
2024-02-21T22:16:16.896Z,95103.03
2024-02-21T22:18:44.853Z,95103.84
2024-02-21T22:21:12.748Z,95098.34
2024-02-21T22:23:41.007Z,95103.06
2024-02-21T22:26:10.349Z,95088.38
2024-02-21T22:28:38.229Z,95094.72
2024-02-21T22:31:07.428Z,95082.75
2024-02-21T22:33:35.184Z,95078.84
2024-02-21T22:36:02.874Z,95080.66
2024-02-21T22:38:32.305Z,95084.88
2024-02-21T22:40:59.976Z,95092.44
2024-02-21T22:43:27.750Z,95087.59
2024-02-21T22:45:55.652Z,95081.66
2024-02-21T22:48:24.772Z,95076.72
2024-02-21T22:50:52.739Z,95068.22
2024-02-21T22:53:21.019Z,95056.63
2024-02-21T22:55:48.787Z,95051.97
2024-02-21T22:58:16.554Z,95040.53
2024-02-21T23:00:45.110Z,95042.94
2024-02-21T23:03:12.962Z,95029.16
2024-02-21T23:05:42.553Z,95030.16
2024-02-21T23:08:10.430Z,95022.75
2024-02-21T23:10:38.213Z,95006.88
2024-02-21T23:13:06.459Z,95008.78
2024-02-21T23:15:34.170Z,95006.22
2024-02-21T23:18:01.975Z,94998.47
2024-02-21T23:20:30.752Z,94983.75
2024-02-21T23:22:59.970Z,94988.19
2024-02-21T23:25:27.702Z,94984.34
2024-02-21T23:27:55.433Z,94978.44
2024-02-21T23:30:23.366Z,94974.97
2024-02-21T23:32:51.460Z,94971.16
2024-02-21T23:35:19.840Z,94969.16
2024-02-21T23:37:47.645Z,94959.78
2024-02-21T23:40:17.114Z,94957.34
2024-02-21T23:42:45.960Z,94952.16
2024-02-21T23:45:14.196Z,94953.59
2024-02-21T23:47:42.351Z,94950.56
2024-02-21T23:50:11.039Z,94948.91
2024-02-21T23:52:38.787Z,94944.47
2024-02-21T23:55:06.872Z,94937.56
2024-02-21T23:57:36.242Z,94937.13
